Погода METAR - Красноярск

Кемерово, Абакан, Красноярск, Новосибирск
Код METAR: UNKL 011700Z 26005MPS 8000 -SHSN SCT031CB M10/M13 Q1041 R29/420155 NOSIG RMK QFE755

Погода - Сейчас

Время: 2020-12-02 00:00, местное
Направление ветра: Запад-юго-запад (260°)
Скорость ветра: 5 м/с
Видимость:
Температура: -10°C
Точка росы: -13°C
Атмосферное давление: 1041 гПа

Архив погоды

Время, местное Направление Скорость, м/с Температура, °C Точка росы, °C Давление, гПа
2020-12-02 00:00 ЗЮЗ (260°) 5 -10 -13 1041
2020-11-26 19:00 Штиль 0 -15 -17 1043
2020-11-24 19:00 Штиль 0 -9 -10 1036
2020-11-22 16:00 ЗЮЗ (260°) 6 -2 -7 1027
2020-11-19 11:30 ЗЮЗ (250°) 4 -10 -14 1029
2020-11-18 17:00 ЗЮЗ (250°) 3 -11 -15 1029
2020-11-16 19:30 Штиль 0 -11 -12 1026
2020-11-16 12:00 Переменный 1 0 1400
2020-11-15 15:30 Штиль 0 -8 -11 1028
2020-11-15 06:30 Штиль 0 -16 -18 1028
2020-11-15 02:00 Штиль 0 -15 -16 1027
2020-11-13 10:30 ЗЮЗ (260°) 9, порывы до 16 -1 -6 1014
2020-11-08 12:00 ЮЮЗ (200°) 8, порывы до 15 10 2 1014
2020-11-08 04:00 Ю (190°) 4 8 2 1017
2020-11-06 16:00 В (80°) 2 -3 -6 1023
2020-11-04 07:00 ЗЮЗ (260°) 2 -2 -4 1019
2020-11-01 19:00 Ю (180°) 2 1 -1 1025
2020-11-01 12:00 В (100°) 1 0 -1 1028
2020-10-31 18:00 Переменный 1 -3 -4 1030
2020-10-30 02:00 ЗЮЗ (250°) 2 -6 -10 1024
2020-10-29 14:00 ЗЮЗ (250°) 6 -1 -6 1019
2020-10-28 20:00 ЮЗ (230°) 4 3 -4 1010
2020-10-26 15:00 Переменный 1 1 -2 1018
2020-10-23 23:00 Ю (190°) 2 1 -4 1015
2020-10-23 00:30 ЗЮЗ (260°) 9, порывы до 16 9 4 1005
2020-10-22 12:30 ЮЮЗ (200°) 6 14 -1 1002
2020-10-20 23:00 ЗЮЗ (260°) 6 2 0 1016
2020-10-20 17:00 ЗЮЗ (240°) 4 2 0 1014
2020-10-18 00:30 Ю (190°) 3 12 0 1009
2020-10-16 19:30 Штиль 0 -3 -4 1024
2020-10-15 02:30 ЮЗ (220°) 6 6 1 1020
2020-10-13 08:00 Переменный 1 1 1 1017
2020-10-11 03:30 З (270°) 5 -1 -3 1022
2020-10-09 15:30 ЮЗ (210°) 4 -1 -5 1025
2020-10-09 10:30 ЗЮЗ (260°) 5 -2 -5 1026
2020-10-08 17:00 ЗЮЗ (240°) 4 -1 -7 1021
2020-10-08 04:30 ЗЮЗ (250°) 1 0 0 1017
2020-10-03 17:00 ЮЮЗ (200°) 2 8 0 1023
2020-10-01 05:30 Штиль 0 0 0 1022
2020-09-28 20:00 З (280°) 1 4 3 1020
2020-09-27 10:30 ЗЮЗ (250°) 3 7 5 1027
2020-09-24 14:30 ЮВ (120°) 4 12 5 1005
2020-09-23 19:00 З (270°) 3 10 9 1009
2020-09-23 08:00 Штиль 0 7 4 1013
2020-09-22 19:00 ЗЮЗ (260°) 3 18 9 1012
2020-09-22 12:30 В (90°) 3 19 11 1011
2020-09-20 22:00 Штиль 0 8 8 1021
2020-09-20 07:00 ЮЗ (220°) 1 9 7 1021